sensor_id;sensor_type;location;lat;lon;timestamp;P1;durP1;ratioP1;P2;durP2;ratioP2
49123;SDS011;48506;48.202;16.274;2023-05-14T00:02:19;18.33;;;14.02;;
49123;SDS011;48506;48.202;16.274;2023-05-14T00:04:45;19.67;;;13.98;;
49123;SDS011;48506;48.202;16.274;2023-05-14T00:07:11;20.92;;;14.02;;
49123;SDS011;48506;48.202;16.274;2023-05-14T00:09:36;21.85;;;14.65;;
49123;SDS011;48506;48.202;16.274;2023-05-14T00:12:03;17.70;;;12.32;;
49123;SDS011;48506;48.202;16.274;2023-05-14T00:14:29;19.15;;;13.90;;
49123;SDS011;48506;48.202;16.274;2023-05-14T00:16:55;17.17;;;12.60;;
49123;SDS011;48506;48.202;16.274;2023-05-14T00:19:21;21.80;;;14.85;;
49123;SDS011;48506;48.202;16.274;2023-05-14T00:21:47;18.15;;;13.57;;
49123;SDS011;48506;48.202;16.274;2023-05-14T00:24:16;18.20;;;13.32;;
49123;SDS011;48506;48.202;16.274;2023-05-14T00:26:42;20.92;;;13.52;;
49123;SDS011;48506;48.202;16.274;2023-05-14T00:29:08;20.48;;;13.68;;
49123;SDS011;48506;48.202;16.274;2023-05-14T00:31:34;20.77;;;13.43;;
49123;SDS011;48506;48.202;16.274;2023-05-14T00:34:00;16.70;;;13.10;;
49123;SDS011;48506;48.202;16.274;2023-05-14T00:36:26;22.27;;;13.68;;
49123;SDS011;48506;48.202;16.274;2023-05-14T00:38:52;19.23;;;13.68;;
49123;SDS011;48506;48.202;16.274;2023-05-14T00:41:18;20.90;;;13.20;;
49123;SDS011;48506;48.202;16.274;2023-05-14T00:43:44;16.23;;;12.30;;
49123;SDS011;48506;48.202;16.274;2023-05-14T00:46:09;23.27;;;14.77;;
49123;SDS011;48506;48.202;16.274;2023-05-14T00:48:37;18.48;;;13.10;;
49123;SDS011;48506;48.202;16.274;2023-05-14T00:51:03;16.73;;;12.18;;
49123;SDS011;48506;48.202;16.274;2023-05-14T00:53:29;17.02;;;12.48;;
49123;SDS011;48506;48.202;16.274;2023-05-14T00:55:55;17.50;;;11.68;;
49123;SDS011;48506;48.202;16.274;2023-05-14T00:58:21;17.20;;;12.65;;
49123;SDS011;48506;48.202;16.274;2023-05-14T01:00:48;17.00;;;12.25;;
49123;SDS011;48506;48.202;16.274;2023-05-14T01:03:14;18.23;;;13.10;;
49123;SDS011;48506;48.202;16.274;2023-05-14T01:11:16;21.40;;;12.52;;
49123;SDS011;48506;48.202;16.274;2023-05-14T01:16:21;17.63;;;12.80;;
49123;SDS011;48506;48.202;16.274;2023-05-14T01:18:50;26.95;;;14.13;;
49123;SDS011;48506;48.202;16.274;2023-05-14T01:21:37;19.98;;;12.90;;
49123;SDS011;48506;48.202;16.274;2023-05-14T01:24:07;16.13;;;12.07;;
49123;SDS011;48506;48.202;16.274;2023-05-14T01:26:33;19.58;;;13.25;;
49123;SDS011;48506;48.202;16.274;2023-05-14T01:29:21;23.23;;;13.35;;
49123;SDS011;48506;48.202;16.274;2023-05-14T01:31:48;22.92;;;13.73;;
49123;SDS011;48506;48.202;16.274;2023-05-14T01:34:15;18.33;;;13.10;;
49123;SDS011;48506;48.202;16.274;2023-05-14T01:36:47;19.73;;;14.02;;
49123;SDS011;48506;48.202;16.274;2023-05-14T01:39:14;19.67;;;12.85;;
49123;SDS011;48506;48.202;16.274;2023-05-14T01:41:40;19.25;;;13.70;;
49123;SDS011;48506;48.202;16.274;2023-05-14T01:44:07;20.85;;;13.13;;
49123;SDS011;48506;48.202;16.274;2023-05-14T01:46:34;20.77;;;14.38;;
49123;SDS011;48506;48.202;16.274;2023-05-14T01:49:00;18.48;;;13.38;;
49123;SDS011;48506;48.202;16.274;2023-05-14T01:51:26;19.08;;;13.48;;
49123;SDS011;48506;48.202;16.274;2023-05-14T01:53:52;17.48;;;13.32;;
49123;SDS011;48506;48.202;16.274;2023-05-14T01:56:18;18.20;;;12.90;;
49123;SDS011;48506;48.202;16.274;2023-05-14T01:58:46;18.65;;;14.02;;
49123;SDS011;48506;48.202;16.274;2023-05-14T02:01:12;18.92;;;13.90;;
49123;SDS011;48506;48.202;16.274;2023-05-14T02:03:38;17.05;;;13.25;;
49123;SDS011;48506;48.202;16.274;2023-05-14T02:06:04;19.27;;;12.98;;
49123;SDS011;48506;48.202;16.274;2023-05-14T02:08:30;16.55;;;12.93;;
49123;SDS011;48506;48.202;16.274;2023-05-14T02:10:56;17.50;;;13.15;;
49123;SDS011;48506;48.202;16.274;2023-05-14T02:13:22;15.82;;;12.15;;
49123;SDS011;48506;48.202;16.274;2023-05-14T02:15:49;16.75;;;12.70;;
49123;SDS011;48506;48.202;16.274;2023-05-14T02:18:15;18.05;;;13.85;;
49123;SDS011;48506;48.202;16.274;2023-05-14T02:20:41;14.65;;;11.90;;
49123;SDS011;48506;48.202;16.274;2023-05-14T02:23:06;17.20;;;12.95;;
49123;SDS011;48506;48.202;16.274;2023-05-14T02:25:32;17.23;;;14.77;;
49123;SDS011;48506;48.202;16.274;2023-05-14T02:27:59;15.52;;;11.82;;
49123;SDS011;48506;48.202;16.274;2023-05-14T02:30:25;19.25;;;12.80;;
49123;SDS011;48506;48.202;16.274;2023-05-14T02:32:51;16.38;;;13.02;;
49123;SDS011;48506;48.202;16.274;2023-05-14T02:35:17;20.15;;;13.27;;
49123;SDS011;48506;48.202;16.274;2023-05-14T02:37:43;15.88;;;11.98;;
49123;SDS011;48506;48.202;16.274;2023-05-14T02:40:09;17.23;;;12.63;;
49123;SDS011;48506;48.202;16.274;2023-05-14T02:42:35;17.67;;;12.82;;
49123;SDS011;48506;48.202;16.274;2023-05-14T02:45:02;18.13;;;13.07;;
49123;SDS011;48506;48.202;16.274;2023-05-14T02:47:28;17.13;;;11.88;;
49123;SDS011;48506;48.202;16.274;2023-05-14T02:49:54;18.58;;;12.32;;
49123;SDS011;48506;48.202;16.274;2023-05-14T02:52:20;16.98;;;13.43;;
49123;SDS011;48506;48.202;16.274;2023-05-14T02:54:46;17.90;;;13.25;;
49123;SDS011;48506;48.202;16.274;2023-05-14T02:57:12;20.77;;;14.25;;
49123;SDS011;48506;48.202;16.274;2023-05-14T02:59:37;18.40;;;13.63;;
49123;SDS011;48506;48.202;16.274;2023-05-14T03:02:03;20.77;;;15.38;;
49123;SDS011;48506;48.202;16.274;2023-05-14T03:04:29;20.65;;;13.35;;
49123;SDS011;48506;48.202;16.274;2023-05-14T03:06:55;16.30;;;12.30;;
49123;SDS011;48506;48.202;16.274;2023-05-14T03:09:21;16.33;;;12.68;;
49123;SDS011;48506;48.202;16.274;2023-05-14T03:11:47;19.25;;;13.13;;
49123;SDS011;48506;48.202;16.274;2023-05-14T03:14:14;17.25;;;13.43;;
49123;SDS011;48506;48.202;16.274;2023-05-14T03:16:40;18.15;;;13.40;;
49123;SDS011;48506;48.202;16.274;2023-05-14T03:19:06;16.38;;;12.18;;
49123;SDS011;48506;48.202;16.274;2023-05-14T03:21:33;14.32;;;11.98;;
49123;SDS011;48506;48.202;16.274;2023-05-14T03:24:00;15.23;;;12.25;;
49123;SDS011;48506;48.202;16.274;2023-05-14T03:26:26;13.40;;;11.35;;
49123;SDS011;48506;48.202;16.274;2023-05-14T03:28:51;13.88;;;11.13;;
49123;SDS011;48506;48.202;16.274;2023-05-14T03:31:17;14.90;;;12.00;;
49123;SDS011;48506;48.202;16.274;2023-05-14T03:33:43;15.63;;;12.15;;
49123;SDS011;48506;48.202;16.274;2023-05-14T03:36:09;13.38;;;11.43;;
49123;SDS011;48506;48.202;16.274;2023-05-14T03:38:35;16.13;;;12.63;;
49123;SDS011;48506;48.202;16.274;2023-05-14T03:41:01;18.50;;;13.05;;
49123;SDS011;48506;48.202;16.274;2023-05-14T03:43:27;20.65;;;12.88;;
49123;SDS011;48506;48.202;16.274;2023-05-14T03:45:53;17.13;;;13.50;;
49123;SDS011;48506;48.202;16.274;2023-05-14T03:48:19;15.85;;;13.45;;
49123;SDS011;48506;48.202;16.274;2023-05-14T03:50:45;19.98;;;15.63;;
49123;SDS011;48506;48.202;16.274;2023-05-14T03:53:11;27.15;;;18.23;;
49123;SDS011;48506;48.202;16.274;2023-05-14T03:55:37;23.83;;;14.90;;
49123;SDS011;48506;48.202;16.274;2023-05-14T03:58:03;26.55;;;14.45;;
49123;SDS011;48506;48.202;16.274;2023-05-14T04:00:35;15.95;;;13.75;;
49123;SDS011;48506;48.202;16.274;2023-05-14T04:03:01;17.27;;;13.57;;
49123;SDS011;48506;48.202;16.274;2023-05-14T04:05:26;14.32;;;11.05;;
49123;SDS011;48506;48.202;16.274;2023-05-14T04:07:53;16.00;;;12.20;;
49123;SDS011;48506;48.202;16.274;2023-05-14T04:10:19;15.77;;;11.52;;
49123;SDS011;48506;48.202;16.274;2023-05-14T04:12:44;16.23;;;11.77;;
49123;SDS011;48506;48.202;16.274;2023-05-14T04:15:10;15.52;;;12.23;;
49123;SDS011;48506;48.202;16.274;2023-05-14T04:17:36;19.70;;;12.80;;
49123;SDS011;48506;48.202;16.274;2023-05-14T04:20:02;14.13;;;12.30;;
49123;SDS011;48506;48.202;16.274;2023-05-14T04:22:28;15.30;;;12.15;;
49123;SDS011;48506;48.202;16.274;2023-05-14T04:24:54;14.52;;;11.90;;
49123;SDS011;48506;48.202;16.274;2023-05-14T04:27:20;14.98;;;12.57;;
49123;SDS011;48506;48.202;16.274;2023-05-14T04:29:47;13.57;;;11.60;;
49123;SDS011;48506;48.202;16.274;2023-05-14T04:32:13;12.52;;;11.00;;
49123;SDS011;48506;48.202;16.274;2023-05-14T04:34:40;14.57;;;11.13;;
49123;SDS011;48506;48.202;16.274;2023-05-14T04:37:07;13.25;;;10.70;;
49123;SDS011;48506;48.202;16.274;2023-05-14T04:39:33;14.90;;;10.63;;
49123;SDS011;48506;48.202;16.274;2023-05-14T04:41:59;13.75;;;11.95;;
49123;SDS011;48506;48.202;16.274;2023-05-14T04:44:27;16.58;;;12.65;;
49123;SDS011;48506;48.202;16.274;2023-05-14T04:46:53;15.40;;;12.07;;
49123;SDS011;48506;48.202;16.274;2023-05-14T04:49:19;15.20;;;12.68;;
49123;SDS011;48506;48.202;16.274;2023-05-14T04:51:45;15.45;;;12.93;;
49123;SDS011;48506;48.202;16.274;2023-05-14T04:54:12;18.67;;;12.45;;
49123;SDS011;48506;48.202;16.274;2023-05-14T04:56:38;17.23;;;12.70;;
49123;SDS011;48506;48.202;16.274;2023-05-14T04:59:04;15.73;;;13.43;;
49123;SDS011;48506;48.202;16.274;2023-05-14T05:01:30;18.40;;;12.65;;
49123;SDS011;48506;48.202;16.274;2023-05-14T05:03:56;13.13;;;11.25;;
49123;SDS011;48506;48.202;16.274;2023-05-14T05:06:22;15.23;;;10.95;;
49123;SDS011;48506;48.202;16.274;2023-05-14T05:08:48;14.10;;;11.70;;
49123;SDS011;48506;48.202;16.274;2023-05-14T05:11:13;12.65;;;11.35;;
49123;SDS011;48506;48.202;16.274;2023-05-14T05:13:39;12.10;;;10.77;;
49123;SDS011;48506;48.202;16.274;2023-05-14T05:16:06;14.43;;;11.95;;
49123;SDS011;48506;48.202;16.274;2023-05-14T05:18:32;13.63;;;11.05;;
49123;SDS011;48506;48.202;16.274;2023-05-14T05:20:58;12.10;;;10.65;;
49123;SDS011;48506;48.202;16.274;2023-05-14T05:23:24;13.63;;;11.57;;
49123;SDS011;48506;48.202;16.274;2023-05-14T05:25:49;11.90;;;10.27;;
49123;SDS011;48506;48.202;16.274;2023-05-14T05:28:15;13.43;;;10.88;;
49123;SDS011;48506;48.202;16.274;2023-05-14T05:30:41;13.18;;;11.15;;
49123;SDS011;48506;48.202;16.274;2023-05-14T05:33:10;12.18;;;10.00;;
49123;SDS011;48506;48.202;16.274;2023-05-14T05:35:36;15.18;;;10.93;;
49123;SDS011;48506;48.202;16.274;2023-05-14T05:38:02;11.57;;;10.02;;
49123;SDS011;48506;48.202;16.274;2023-05-14T05:40:28;14.77;;;10.02;;
49123;SDS011;48506;48.202;16.274;2023-05-14T05:42:54;15.80;;;10.02;;
49123;SDS011;48506;48.202;16.274;2023-05-14T05:45:20;11.32;;;9.57;;
49123;SDS011;48506;48.202;16.274;2023-05-14T05:47:46;11.48;;;9.02;;
49123;SDS011;48506;48.202;16.274;2023-05-14T05:50:12;11.93;;;9.48;;
49123;SDS011;48506;48.202;16.274;2023-05-14T05:52:38;13.88;;;9.75;;
49123;SDS011;48506;48.202;16.274;2023-05-14T05:55:04;16.67;;;9.00;;
49123;SDS011;48506;48.202;16.274;2023-05-14T05:57:30;11.43;;;9.20;;
49123;SDS011;48506;48.202;16.274;2023-05-14T05:59:56;11.55;;;9.50;;
49123;SDS011;48506;48.202;16.274;2023-05-14T06:02:23;11.02;;;8.15;;
49123;SDS011;48506;48.202;16.274;2023-05-14T06:04:50;9.73;;;7.63;;
49123;SDS011;48506;48.202;16.274;2023-05-14T06:07:17;11.60;;;8.88;;
49123;SDS011;48506;48.202;16.274;2023-05-14T06:09:43;10.18;;;8.35;;
49123;SDS011;48506;48.202;16.274;2023-05-14T06:12:09;10.65;;;7.70;;
49123;SDS011;48506;48.202;16.274;2023-05-14T06:14:35;13.15;;;8.23;;
49123;SDS011;48506;48.202;16.274;2023-05-14T06:17:01;11.88;;;7.80;;
49123;SDS011;48506;48.202;16.274;2023-05-14T06:19:27;11.75;;;8.40;;
49123;SDS011;48506;48.202;16.274;2023-05-14T06:21:52;9.48;;;7.63;;
49123;SDS011;48506;48.202;16.274;2023-05-14T06:24:18;10.23;;;8.10;;
49123;SDS011;48506;48.202;16.274;2023-05-14T06:26:45;8.52;;;6.90;;
49123;SDS011;48506;48.202;16.274;2023-05-14T06:29:12;11.40;;;7.28;;
49123;SDS011;48506;48.202;16.274;2023-05-14T06:31:38;10.63;;;8.15;;
49123;SDS011;48506;48.202;16.274;2023-05-14T06:34:04;13.95;;;8.90;;
49123;SDS011;48506;48.202;16.274;2023-05-14T06:36:30;10.80;;;8.55;;
49123;SDS011;48506;48.202;16.274;2023-05-14T06:38:56;9.10;;;7.55;;
49123;SDS011;48506;48.202;16.274;2023-05-14T06:41:22;13.20;;;7.53;;
49123;SDS011;48506;48.202;16.274;2023-05-14T06:43:48;10.48;;;8.65;;
49123;SDS011;48506;48.202;16.274;2023-05-14T06:46:14;10.10;;;8.13;;
49123;SDS011;48506;48.202;16.274;2023-05-14T06:48:40;11.65;;;8.13;;
49123;SDS011;48506;48.202;16.274;2023-05-14T06:51:06;11.88;;;8.85;;
49123;SDS011;48506;48.202;16.274;2023-05-14T06:53:32;9.52;;;8.23;;
49123;SDS011;48506;48.202;16.274;2023-05-14T06:55:58;11.25;;;8.75;;
49123;SDS011;48506;48.202;16.274;2023-05-14T06:58:24;13.25;;;9.98;;
49123;SDS011;48506;48.202;16.274;2023-05-14T07:00:49;12.07;;;9.40;;
49123;SDS011;48506;48.202;16.274;2023-05-14T07:03:15;22.40;;;15.35;;
49123;SDS011;48506;48.202;16.274;2023-05-14T07:05:41;16.42;;;12.10;;
49123;SDS011;48506;48.202;16.274;2023-05-14T07:08:10;27.17;;;18.15;;
49123;SDS011;48506;48.202;16.274;2023-05-14T07:10:36;34.38;;;21.60;;
49123;SDS011;48506;48.202;16.274;2023-05-14T07:13:03;16.30;;;11.27;;
49123;SDS011;48506;48.202;16.274;2023-05-14T07:15:29;14.93;;;10.18;;
49123;SDS011;48506;48.202;16.274;2023-05-14T07:17:55;15.73;;;12.25;;
49123;SDS011;48506;48.202;16.274;2023-05-14T07:20:21;14.40;;;11.32;;
49123;SDS011;48506;48.202;16.274;2023-05-14T07:22:48;16.90;;;12.23;;
49123;SDS011;48506;48.202;16.274;2023-05-14T07:25:15;12.18;;;10.73;;
49123;SDS011;48506;48.202;16.274;2023-05-14T07:27:41;17.90;;;11.07;;
49123;SDS011;48506;48.202;16.274;2023-05-14T07:30:07;14.38;;;11.73;;
49123;SDS011;48506;48.202;16.274;2023-05-14T07:32:33;11.88;;;9.98;;
49123;SDS011;48506;48.202;16.274;2023-05-14T07:34:59;13.55;;;11.32;;
49123;SDS011;48506;48.202;16.274;2023-05-14T07:37:25;15.90;;;11.25;;
49123;SDS011;48506;48.202;16.274;2023-05-14T07:39:51;15.20;;;12.02;;
49123;SDS011;48506;48.202;16.274;2023-05-14T07:42:18;16.48;;;12.50;;
49123;SDS011;48506;48.202;16.274;2023-05-14T07:44:43;17.00;;;12.15;;
49123;SDS011;48506;48.202;16.274;2023-05-14T07:47:10;14.75;;;11.63;;
49123;SDS011;48506;48.202;16.274;2023-05-14T07:49:36;17.17;;;12.45;;
49123;SDS011;48506;48.202;16.274;2023-05-14T07:52:01;17.85;;;12.90;;
49123;SDS011;48506;48.202;16.274;2023-05-14T07:54:27;12.95;;;10.52;;
49123;SDS011;48506;48.202;16.274;2023-05-14T07:56:53;13.85;;;10.85;;
49123;SDS011;48506;48.202;16.274;2023-05-14T07:59:19;14.93;;;11.00;;
49123;SDS011;48506;48.202;16.274;2023-05-14T08:01:45;16.00;;;10.07;;
49123;SDS011;48506;48.202;16.274;2023-05-14T08:04:11;14.77;;;10.77;;
49123;SDS011;48506;48.202;16.274;2023-05-14T08:06:39;14.20;;;10.70;;
49123;SDS011;48506;48.202;16.274;2023-05-14T08:09:05;12.05;;;9.52;;
49123;SDS011;48506;48.202;16.274;2023-05-14T08:11:31;12.27;;;9.80;;
49123;SDS011;48506;48.202;16.274;2023-05-14T08:13:56;16.00;;;10.90;;
49123;SDS011;48506;48.202;16.274;2023-05-14T08:16:22;12.50;;;10.05;;
49123;SDS011;48506;48.202;16.274;2023-05-14T08:18:50;14.23;;;11.00;;
49123;SDS011;48506;48.202;16.274;2023-05-14T08:21:16;18.05;;;12.38;;
49123;SDS011;48506;48.202;16.274;2023-05-14T08:23:42;14.13;;;10.30;;
49123;SDS011;48506;48.202;16.274;2023-05-14T08:26:08;11.90;;;9.13;;
49123;SDS011;48506;48.202;16.274;2023-05-14T08:28:33;10.77;;;8.85;;
49123;SDS011;48506;48.202;16.274;2023-05-14T08:30:59;12.40;;;9.15;;
49123;SDS011;48506;48.202;16.274;2023-05-14T08:33:25;11.00;;;8.75;;
49123;SDS011;48506;48.202;16.274;2023-05-14T08:35:51;10.52;;;8.98;;
49123;SDS011;48506;48.202;16.274;2023-05-14T08:38:18;12.07;;;10.25;;
49123;SDS011;48506;48.202;16.274;2023-05-14T08:40:54;14.98;;;11.63;;
49123;SDS011;48506;48.202;16.274;2023-05-14T08:45:55;9.18;;;7.32;;
49123;SDS011;48506;48.202;16.274;2023-05-14T08:48:25;13.85;;;9.27;;
49123;SDS011;48506;48.202;16.274;2023-05-14T08:50:56;12.80;;;9.65;;
49123;SDS011;48506;48.202;16.274;2023-05-14T08:53:23;14.70;;;10.27;;
49123;SDS011;48506;48.202;16.274;2023-05-14T08:55:49;14.95;;;10.40;;
49123;SDS011;48506;48.202;16.274;2023-05-14T08:58:17;15.18;;;10.13;;
49123;SDS011;48506;48.202;16.274;2023-05-14T09:00:42;20.38;;;11.95;;
49123;SDS011;48506;48.202;16.274;2023-05-14T09:03:08;13.25;;;9.25;;
49123;SDS011;48506;48.202;16.274;2023-05-14T09:05:35;13.82;;;10.20;;
49123;SDS011;48506;48.202;16.274;2023-05-14T09:08:01;15.43;;;10.23;;
49123;SDS011;48506;48.202;16.274;2023-05-14T09:10:27;16.08;;;10.40;;
49123;SDS011;48506;48.202;16.274;2023-05-14T09:12:53;17.88;;;10.93;;
49123;SDS011;48506;48.202;16.274;2023-05-14T09:15:20;16.27;;;9.45;;
49123;SDS011;48506;48.202;16.274;2023-05-14T09:17:47;14.73;;;9.57;;
49123;SDS011;48506;48.202;16.274;2023-05-14T09:20:13;13.88;;;9.45;;
49123;SDS011;48506;48.202;16.274;2023-05-14T09:22:39;13.68;;;10.43;;
49123;SDS011;48506;48.202;16.274;2023-05-14T09:25:07;12.05;;;9.38;;
49123;SDS011;48506;48.202;16.274;2023-05-14T09:27:36;10.77;;;8.40;;
49123;SDS011;48506;48.202;16.274;2023-05-14T09:30:05;14.13;;;9.82;;
49123;SDS011;48506;48.202;16.274;2023-05-14T09:32:39;12.20;;;10.15;;
49123;SDS011;48506;48.202;16.274;2023-05-14T09:35:12;11.10;;;9.55;;
49123;SDS011;48506;48.202;16.274;2023-05-14T09:37:41;12.77;;;9.02;;
49123;SDS011;48506;48.202;16.274;2023-05-14T09:40:12;14.20;;;10.13;;
49123;SDS011;48506;48.202;16.274;2023-05-14T09:42:38;10.30;;;8.45;;
49123;SDS011;48506;48.202;16.274;2023-05-14T09:45:08;13.25;;;8.48;;
49123;SDS011;48506;48.202;16.274;2023-05-14T09:47:35;13.13;;;8.50;;
49123;SDS011;48506;48.202;16.274;2023-05-14T09:50:03;10.20;;;8.27;;
49123;SDS011;48506;48.202;16.274;2023-05-14T09:52:29;16.27;;;10.35;;
49123;SDS011;48506;48.202;16.274;2023-05-14T09:54:55;13.65;;;10.13;;
49123;SDS011;48506;48.202;16.274;2023-05-14T09:57:21;11.40;;;9.15;;
49123;SDS011;48506;48.202;16.274;2023-05-14T09:59:48;15.55;;;10.13;;
49123;SDS011;48506;48.202;16.274;2023-05-14T10:02:30;15.43;;;10.98;;
49123;SDS011;48506;48.202;16.274;2023-05-14T10:05:05;15.38;;;10.63;;
49123;SDS011;48506;48.202;16.274;2023-05-14T10:07:39;17.90;;;11.23;;
49123;SDS011;48506;48.202;16.274;2023-05-14T10:10:14;17.17;;;11.45;;
49123;SDS011;48506;48.202;16.274;2023-05-14T10:12:43;17.67;;;12.48;;
49123;SDS011;48506;48.202;16.274;2023-05-14T10:15:16;15.27;;;11.27;;
49123;SDS011;48506;48.202;16.274;2023-05-14T10:20:14;14.52;;;10.30;;
49123;SDS011;48506;48.202;16.274;2023-05-14T10:22:43;14.55;;;11.57;;
49123;SDS011;48506;48.202;16.274;2023-05-14T10:25:10;12.85;;;9.55;;
49123;SDS011;48506;48.202;16.274;2023-05-14T10:27:36;13.88;;;10.55;;
49123;SDS011;48506;48.202;16.274;2023-05-14T10:30:04;15.57;;;11.43;;
49123;SDS011;48506;48.202;16.274;2023-05-14T10:32:36;13.65;;;11.05;;
49123;SDS011;48506;48.202;16.274;2023-05-14T10:35:13;12.93;;;10.30;;
49123;SDS011;48506;48.202;16.274;2023-05-14T10:37:43;14.65;;;10.55;;
49123;SDS011;48506;48.202;16.274;2023-05-14T10:40:10;19.38;;;12.02;;
49123;SDS011;48506;48.202;16.274;2023-05-14T10:42:38;17.00;;;12.85;;
49123;SDS011;48506;48.202;16.274;2023-05-14T10:45:06;17.00;;;11.68;;
49123;SDS011;48506;48.202;16.274;2023-05-14T10:47:43;21.00;;;12.55;;
49123;SDS011;48506;48.202;16.274;2023-05-14T10:50:12;14.05;;;11.68;;
49123;SDS011;48506;48.202;16.274;2023-05-14T10:52:40;14.40;;;11.57;;
49123;SDS011;48506;48.202;16.274;2023-05-14T10:55:08;21.55;;;12.52;;
49123;SDS011;48506;48.202;16.274;2023-05-14T10:57:37;15.68;;;11.25;;
49123;SDS011;48506;48.202;16.274;2023-05-14T11:00:04;16.30;;;11.80;;
49123;SDS011;48506;48.202;16.274;2023-05-14T11:02:35;15.60;;;11.43;;
49123;SDS011;48506;48.202;16.274;2023-05-14T11:07:30;16.05;;;12.57;;
49123;SDS011;48506;48.202;16.274;2023-05-14T11:10:05;20.92;;;13.98;;
49123;SDS011;48506;48.202;16.274;2023-05-14T11:12:36;17.33;;;14.05;;
49123;SDS011;48506;48.202;16.274;2023-05-14T11:15:06;16.67;;;13.18;;
49123;SDS011;48506;48.202;16.274;2023-05-14T11:17:34;22.08;;;13.45;;
49123;SDS011;48506;48.202;16.274;2023-05-14T11:20:01;22.60;;;14.55;;
49123;SDS011;48506;48.202;16.274;2023-05-14T11:22:29;20.13;;;15.50;;
49123;SDS011;48506;48.202;16.274;2023-05-14T11:24:55;19.00;;;13.93;;
49123;SDS011;48506;48.202;16.274;2023-05-14T11:27:22;21.52;;;14.23;;
49123;SDS011;48506;48.202;16.274;2023-05-14T11:29:48;17.42;;;12.52;;
49123;SDS011;48506;48.202;16.274;2023-05-14T11:32:15;17.92;;;12.57;;
49123;SDS011;48506;48.202;16.274;2023-05-14T11:34:42;21.10;;;13.90;;
49123;SDS011;48506;48.202;16.274;2023-05-14T11:37:09;23.75;;;16.27;;
49123;SDS011;48506;48.202;16.274;2023-05-14T11:39:37;24.25;;;16.73;;
49123;SDS011;48506;48.202;16.274;2023-05-14T11:42:04;20.33;;;14.80;;
49123;SDS011;48506;48.202;16.274;2023-05-14T11:44:36;22.80;;;15.40;;
49123;SDS011;48506;48.202;16.274;2023-05-14T11:47:03;16.90;;;12.85;;
49123;SDS011;48506;48.202;16.274;2023-05-14T11:49:30;19.63;;;14.18;;
49123;SDS011;48506;48.202;16.274;2023-05-14T11:52:15;16.40;;;13.68;;
49123;SDS011;48506;48.202;16.274;2023-05-14T11:54:43;19.85;;;14.02;;
49123;SDS011;48506;48.202;16.274;2023-05-14T11:59:36;19.67;;;15.20;;
49123;SDS011;48506;48.202;16.274;2023-05-14T12:02:03;23.58;;;16.15;;
49123;SDS011;48506;48.202;16.274;2023-05-14T12:04:30;19.92;;;15.68;;
49123;SDS011;48506;48.202;16.274;2023-05-14T12:06:57;23.90;;;16.27;;
49123;SDS011;48506;48.202;16.274;2023-05-14T12:09:24;16.20;;;12.00;;
49123;SDS011;48506;48.202;16.274;2023-05-14T12:11:50;21.08;;;14.90;;
49123;SDS011;48506;48.202;16.274;2023-05-14T12:14:18;19.77;;;13.82;;
49123;SDS011;48506;48.202;16.274;2023-05-14T12:16:45;25.88;;;15.10;;
49123;SDS011;48506;48.202;16.274;2023-05-14T12:19:15;15.27;;;13.18;;
49123;SDS011;48506;48.202;16.274;2023-05-14T12:21:43;19.02;;;13.32;;
49123;SDS011;48506;48.202;16.274;2023-05-14T12:24:14;19.10;;;14.55;;
49123;SDS011;48506;48.202;16.274;2023-05-14T12:26:44;15.70;;;13.35;;
49123;SDS011;48506;48.202;16.274;2023-05-14T12:29:12;16.73;;;13.73;;
49123;SDS011;48506;48.202;16.274;2023-05-14T12:31:45;19.20;;;13.18;;
49123;SDS011;48506;48.202;16.274;2023-05-14T12:34:15;21.48;;;14.48;;
49123;SDS011;48506;48.202;16.274;2023-05-14T12:36:41;22.60;;;14.30;;
49123;SDS011;48506;48.202;16.274;2023-05-14T12:39:08;18.33;;;13.40;;
49123;SDS011;48506;48.202;16.274;2023-05-14T12:41:35;20.98;;;14.50;;
49123;SDS011;48506;48.202;16.274;2023-05-14T12:44:01;19.98;;;14.20;;
49123;SDS011;48506;48.202;16.274;2023-05-14T12:46:29;16.88;;;13.18;;
49123;SDS011;48506;48.202;16.274;2023-05-14T12:48:55;19.70;;;14.50;;
49123;SDS011;48506;48.202;16.274;2023-05-14T12:51:21;17.90;;;13.60;;
49123;SDS011;48506;48.202;16.274;2023-05-14T12:53:47;19.70;;;12.07;;
49123;SDS011;48506;48.202;16.274;2023-05-14T12:56:15;17.02;;;13.00;;
49123;SDS011;48506;48.202;16.274;2023-05-14T12:58:41;19.05;;;12.57;;
49123;SDS011;48506;48.202;16.274;2023-05-14T13:01:07;14.95;;;11.68;;
49123;SDS011;48506;48.202;16.274;2023-05-14T13:03:33;16.55;;;12.25;;
49123;SDS011;48506;48.202;16.274;2023-05-14T13:05:59;18.20;;;12.88;;
49123;SDS011;48506;48.202;16.274;2023-05-14T13:08:25;20.92;;;14.18;;
49123;SDS011;48506;48.202;16.274;2023-05-14T13:10:51;19.40;;;13.45;;
49123;SDS011;48506;48.202;16.274;2023-05-14T13:13:18;18.75;;;13.90;;
49123;SDS011;48506;48.202;16.274;2023-05-14T13:15:44;15.23;;;12.25;;
49123;SDS011;48506;48.202;16.274;2023-05-14T13:18:11;18.23;;;14.20;;
49123;SDS011;48506;48.202;16.274;2023-05-14T13:20:38;18.63;;;13.00;;
49123;SDS011;48506;48.202;16.274;2023-05-14T13:23:03;18.23;;;13.15;;
49123;SDS011;48506;48.202;16.274;2023-05-14T13:25:29;17.90;;;13.10;;
49123;SDS011;48506;48.202;16.274;2023-05-14T13:27:55;19.65;;;12.38;;
49123;SDS011;48506;48.202;16.274;2023-05-14T13:30:21;16.52;;;12.52;;
49123;SDS011;48506;48.202;16.274;2023-05-14T13:32:47;19.92;;;13.00;;
49123;SDS011;48506;48.202;16.274;2023-05-14T13:35:13;16.90;;;13.00;;
49123;SDS011;48506;48.202;16.274;2023-05-14T13:37:39;24.85;;;15.35;;
49123;SDS011;48506;48.202;16.274;2023-05-14T13:40:07;21.08;;;13.77;;
49123;SDS011;48506;48.202;16.274;2023-05-14T13:42:34;18.75;;;14.40;;
49123;SDS011;48506;48.202;16.274;2023-05-14T13:45:00;17.77;;;14.68;;
49123;SDS011;48506;48.202;16.274;2023-05-14T13:47:26;16.77;;;12.98;;
49123;SDS011;48506;48.202;16.274;2023-05-14T13:49:53;17.42;;;12.80;;
49123;SDS011;48506;48.202;16.274;2023-05-14T13:52:20;19.55;;;13.73;;
49123;SDS011;48506;48.202;16.274;2023-05-14T13:54:47;21.35;;;15.35;;
49123;SDS011;48506;48.202;16.274;2023-05-14T13:57:13;15.82;;;13.25;;
49123;SDS011;48506;48.202;16.274;2023-05-14T13:59:39;24.70;;;13.20;;
49123;SDS011;48506;48.202;16.274;2023-05-14T14:02:06;18.35;;;13.75;;
49123;SDS011;48506;48.202;16.274;2023-05-14T14:04:33;17.00;;;12.70;;
49123;SDS011;48506;48.202;16.274;2023-05-14T14:06:59;15.68;;;11.85;;
49123;SDS011;48506;48.202;16.274;2023-05-14T14:09:25;18.38;;;12.73;;
49123;SDS011;48506;48.202;16.274;2023-05-14T14:11:51;22.02;;;13.18;;
49123;SDS011;48506;48.202;16.274;2023-05-14T14:14:17;15.35;;;12.20;;
49123;SDS011;48506;48.202;16.274;2023-05-14T14:16:43;13.95;;;11.30;;
49123;SDS011;48506;48.202;16.274;2023-05-14T14:19:09;14.68;;;11.23;;
49123;SDS011;48506;48.202;16.274;2023-05-14T14:21:34;15.90;;;11.75;;
49123;SDS011;48506;48.202;16.274;2023-05-14T14:24:04;14.20;;;8.95;;
49123;SDS011;48506;48.202;16.274;2023-05-14T14:26:30;13.23;;;10.68;;
49123;SDS011;48506;48.202;16.274;2023-05-14T14:28:56;15.73;;;11.43;;